sensor_id;sensor_type;location;lat;lon;timestamp;P1;durP1;ratioP1;P2;durP2;ratioP2
21501;SDS011;27639;48.674;9.242;2023-03-31T00:01:23;3.80;;;1.35;;
21501;SDS011;27639;48.674;9.242;2023-03-31T00:03:49;6.55;;;1.67;;
21501;SDS011;27639;48.674;9.242;2023-03-31T00:06:15;4.53;;;1.80;;
21501;SDS011;27639;48.674;9.242;2023-03-31T00:08:44;5.47;;;1.63;;
21501;SDS011;27639;48.674;9.242;2023-03-31T00:11:11;5.82;;;2.00;;
21501;SDS011;27639;48.674;9.242;2023-03-31T00:13:37;6.13;;;1.98;;
21501;SDS011;27639;48.674;9.242;2023-03-31T00:16:04;6.38;;;1.70;;
21501;SDS011;27639;48.674;9.242;2023-03-31T00:18:31;6.15;;;1.45;;
21501;SDS011;27639;48.674;9.242;2023-03-31T00:21:08;6.57;;;2.00;;
21501;SDS011;27639;48.674;9.242;2023-03-31T00:23:38;4.65;;;1.83;;
21501;SDS011;27639;48.674;9.242;2023-03-31T00:26:05;4.78;;;1.67;;
21501;SDS011;27639;48.674;9.242;2023-03-31T00:28:31;5.88;;;1.80;;
21501;SDS011;27639;48.674;9.242;2023-03-31T00:31:00;6.20;;;1.80;;
21501;SDS011;27639;48.674;9.242;2023-03-31T00:33:27;6.53;;;2.22;;
21501;SDS011;27639;48.674;9.242;2023-03-31T00:35:53;5.10;;;1.60;;
21501;SDS011;27639;48.674;9.242;2023-03-31T00:38:19;5.43;;;1.52;;
21501;SDS011;27639;48.674;9.242;2023-03-31T00:40:45;5.50;;;1.70;;
21501;SDS011;27639;48.674;9.242;2023-03-31T00:46:32;6.40;;;2.10;;
21501;SDS011;27639;48.674;9.242;2023-03-31T00:49:02;6.47;;;1.70;;
21501;SDS011;27639;48.674;9.242;2023-03-31T00:51:28;5.47;;;2.00;;
21501;SDS011;27639;48.674;9.242;2023-03-31T00:54:02;5.35;;;2.20;;
21501;SDS011;27639;48.674;9.242;2023-03-31T00:56:33;6.05;;;1.95;;
21501;SDS011;27639;48.674;9.242;2023-03-31T00:59:02;6.45;;;1.88;;
21501;SDS011;27639;48.674;9.242;2023-03-31T01:01:32;5.40;;;1.75;;
21501;SDS011;27639;48.674;9.242;2023-03-31T01:03:59;5.32;;;1.98;;
21501;SDS011;27639;48.674;9.242;2023-03-31T01:06:27;5.30;;;2.05;;
21501;SDS011;27639;48.674;9.242;2023-03-31T01:08:55;4.65;;;1.67;;
21501;SDS011;27639;48.674;9.242;2023-03-31T01:11:22;6.07;;;1.73;;
21501;SDS011;27639;48.674;9.242;2023-03-31T01:13:51;5.72;;;2.00;;
21501;SDS011;27639;48.674;9.242;2023-03-31T01:16:20;5.85;;;1.52;;
21501;SDS011;27639;48.674;9.242;2023-03-31T01:18:46;5.45;;;2.15;;
21501;SDS011;27639;48.674;9.242;2023-03-31T01:40:34;7.25;;;1.98;;
21501;SDS011;27639;48.674;9.242;2023-03-31T01:43:22;6.57;;;1.70;;
21501;SDS011;27639;48.674;9.242;2023-03-31T01:46:09;5.38;;;2.00;;
21501;SDS011;27639;48.674;9.242;2023-03-31T01:54:37;7.80;;;2.33;;
21501;SDS011;27639;48.674;9.242;2023-03-31T01:57:10;5.15;;;1.70;;
21501;SDS011;27639;48.674;9.242;2023-03-31T02:02:22;6.15;;;2.03;;
21501;SDS011;27639;48.674;9.242;2023-03-31T02:05:05;4.05;;;1.55;;
21501;SDS011;27639;48.674;9.242;2023-03-31T02:07:48;5.90;;;1.80;;
21501;SDS011;27639;48.674;9.242;2023-03-31T02:10:39;6.78;;;1.83;;
21501;SDS011;27639;48.674;9.242;2023-03-31T02:13:07;7.13;;;2.00;;
21501;SDS011;27639;48.674;9.242;2023-03-31T02:15:36;7.07;;;2.10;;
21501;SDS011;27639;48.674;9.242;2023-03-31T02:18:05;4.85;;;2.25;;
21501;SDS011;27639;48.674;9.242;2023-03-31T02:20:35;6.72;;;2.00;;
21501;SDS011;27639;48.674;9.242;2023-03-31T02:23:06;5.50;;;1.80;;
21501;SDS011;27639;48.674;9.242;2023-03-31T02:25:35;7.97;;;2.30;;
21501;SDS011;27639;48.674;9.242;2023-03-31T02:28:08;7.13;;;1.88;;
21501;SDS011;27639;48.674;9.242;2023-03-31T02:33:39;5.45;;;2.13;;
21501;SDS011;27639;48.674;9.242;2023-03-31T02:36:05;5.18;;;1.80;;
21501;SDS011;27639;48.674;9.242;2023-03-31T02:38:33;5.80;;;2.13;;
21501;SDS011;27639;48.674;9.242;2023-03-31T02:41:07;5.10;;;2.10;;
21501;SDS011;27639;48.674;9.242;2023-03-31T02:43:33;4.78;;;2.03;;
21501;SDS011;27639;48.674;9.242;2023-03-31T02:45:59;5.95;;;2.10;;
21501;SDS011;27639;48.674;9.242;2023-03-31T02:48:26;6.78;;;2.17;;
21501;SDS011;27639;48.674;9.242;2023-03-31T02:56:24;6.07;;;2.13;;
21501;SDS011;27639;48.674;9.242;2023-03-31T02:59:15;5.30;;;2.10;;
21501;SDS011;27639;48.674;9.242;2023-03-31T03:07:16;4.68;;;2.20;;
21501;SDS011;27639;48.674;9.242;2023-03-31T03:15:43;6.25;;;2.40;;
21501;SDS011;27639;48.674;9.242;2023-03-31T03:18:13;5.35;;;2.28;;
21501;SDS011;27639;48.674;9.242;2023-03-31T03:20:40;5.50;;;2.50;;
21501;SDS011;27639;48.674;9.242;2023-03-31T03:23:07;4.72;;;2.28;;
21501;SDS011;27639;48.674;9.242;2023-03-31T03:25:32;6.70;;;2.95;;
21501;SDS011;27639;48.674;9.242;2023-03-31T03:27:59;4.78;;;2.40;;
21501;SDS011;27639;48.674;9.242;2023-03-31T03:30:24;5.53;;;2.60;;
21501;SDS011;27639;48.674;9.242;2023-03-31T03:32:50;6.40;;;2.47;;
21501;SDS011;27639;48.674;9.242;2023-03-31T03:35:16;6.35;;;2.45;;
21501;SDS011;27639;48.674;9.242;2023-03-31T03:37:41;5.47;;;2.63;;
21501;SDS011;27639;48.674;9.242;2023-03-31T03:40:07;7.03;;;2.67;;
21501;SDS011;27639;48.674;9.242;2023-03-31T03:42:34;7.65;;;3.08;;
21501;SDS011;27639;48.674;9.242;2023-03-31T03:45:00;4.20;;;2.33;;
21501;SDS011;27639;48.674;9.242;2023-03-31T03:47:26;6.32;;;2.40;;
21501;SDS011;27639;48.674;9.242;2023-03-31T03:49:52;5.15;;;2.45;;
21501;SDS011;27639;48.674;9.242;2023-03-31T03:52:18;8.95;;;3.15;;
21501;SDS011;27639;48.674;9.242;2023-03-31T03:54:44;6.40;;;2.90;;
21501;SDS011;27639;48.674;9.242;2023-03-31T03:57:10;7.80;;;3.00;;
21501;SDS011;27639;48.674;9.242;2023-03-31T03:59:35;10.85;;;2.88;;
21501;SDS011;27639;48.674;9.242;2023-03-31T04:02:01;8.25;;;2.95;;
21501;SDS011;27639;48.674;9.242;2023-03-31T04:04:27;6.22;;;2.45;;
21501;SDS011;27639;48.674;9.242;2023-03-31T04:06:52;6.95;;;2.70;;
21501;SDS011;27639;48.674;9.242;2023-03-31T04:09:18;7.05;;;2.78;;
21501;SDS011;27639;48.674;9.242;2023-03-31T04:11:43;7.45;;;2.70;;
21501;SDS011;27639;48.674;9.242;2023-03-31T04:14:09;5.43;;;2.47;;
21501;SDS011;27639;48.674;9.242;2023-03-31T04:16:35;6.90;;;2.65;;
21501;SDS011;27639;48.674;9.242;2023-03-31T04:19:02;5.45;;;2.40;;
21501;SDS011;27639;48.674;9.242;2023-03-31T04:21:29;7.65;;;2.60;;
21501;SDS011;27639;48.674;9.242;2023-03-31T04:23:58;6.85;;;2.75;;
21501;SDS011;27639;48.674;9.242;2023-03-31T04:26:28;8.48;;;2.88;;
21501;SDS011;27639;48.674;9.242;2023-03-31T04:29:03;6.93;;;3.00;;
21501;SDS011;27639;48.674;9.242;2023-03-31T04:31:29;5.32;;;2.67;;
21501;SDS011;27639;48.674;9.242;2023-03-31T04:33:55;6.00;;;3.35;;
21501;SDS011;27639;48.674;9.242;2023-03-31T04:36:26;6.28;;;2.80;;
21501;SDS011;27639;48.674;9.242;2023-03-31T04:38:55;8.93;;;2.97;;
21501;SDS011;27639;48.674;9.242;2023-03-31T04:41:21;5.95;;;2.80;;
21501;SDS011;27639;48.674;9.242;2023-03-31T04:43:48;8.60;;;3.25;;
21501;SDS011;27639;48.674;9.242;2023-03-31T04:46:14;7.07;;;3.45;;
21501;SDS011;27639;48.674;9.242;2023-03-31T04:48:40;6.55;;;3.20;;
21501;SDS011;27639;48.674;9.242;2023-03-31T04:51:06;9.48;;;3.55;;
21501;SDS011;27639;48.674;9.242;2023-03-31T04:53:32;5.90;;;3.50;;
21501;SDS011;27639;48.674;9.242;2023-03-31T04:55:57;7.65;;;3.80;;
21501;SDS011;27639;48.674;9.242;2023-03-31T04:58:23;9.60;;;3.53;;
21501;SDS011;27639;48.674;9.242;2023-03-31T05:00:48;7.40;;;3.83;;
21501;SDS011;27639;48.674;9.242;2023-03-31T05:03:15;7.10;;;3.50;;
21501;SDS011;27639;48.674;9.242;2023-03-31T05:05:40;7.05;;;3.42;;
21501;SDS011;27639;48.674;9.242;2023-03-31T05:08:06;8.45;;;3.70;;
21501;SDS011;27639;48.674;9.242;2023-03-31T05:10:32;7.82;;;3.95;;
21501;SDS011;27639;48.674;9.242;2023-03-31T05:12:57;9.05;;;4.03;;
21501;SDS011;27639;48.674;9.242;2023-03-31T05:15:23;7.85;;;3.90;;
21501;SDS011;27639;48.674;9.242;2023-03-31T05:17:49;7.30;;;3.60;;
21501;SDS011;27639;48.674;9.242;2023-03-31T05:20:16;8.35;;;3.97;;
21501;SDS011;27639;48.674;9.242;2023-03-31T05:22:46;8.05;;;3.78;;
21501;SDS011;27639;48.674;9.242;2023-03-31T05:25:12;8.20;;;3.60;;
21501;SDS011;27639;48.674;9.242;2023-03-31T05:27:42;6.32;;;3.63;;
21501;SDS011;27639;48.674;9.242;2023-03-31T05:30:10;7.82;;;3.53;;
21501;SDS011;27639;48.674;9.242;2023-03-31T05:32:36;9.05;;;4.22;;
21501;SDS011;27639;48.674;9.242;2023-03-31T05:35:01;12.32;;;4.30;;
21501;SDS011;27639;48.674;9.242;2023-03-31T05:37:27;7.53;;;3.80;;
21501;SDS011;27639;48.674;9.242;2023-03-31T05:39:53;10.05;;;4.15;;
21501;SDS011;27639;48.674;9.242;2023-03-31T05:42:18;7.90;;;3.92;;
21501;SDS011;27639;48.674;9.242;2023-03-31T05:44:44;7.85;;;4.22;;
21501;SDS011;27639;48.674;9.242;2023-03-31T05:47:10;8.80;;;4.10;;
21501;SDS011;27639;48.674;9.242;2023-03-31T05:49:36;9.15;;;3.88;;
21501;SDS011;27639;48.674;9.242;2023-03-31T05:52:02;9.90;;;4.40;;
21501;SDS011;27639;48.674;9.242;2023-03-31T05:54:30;9.52;;;4.28;;
21501;SDS011;27639;48.674;9.242;2023-03-31T05:56:55;10.60;;;4.40;;
21501;SDS011;27639;48.674;9.242;2023-03-31T05:59:21;8.82;;;4.53;;
21501;SDS011;27639;48.674;9.242;2023-03-31T06:01:46;8.40;;;4.60;;
21501;SDS011;27639;48.674;9.242;2023-03-31T06:04:12;8.93;;;4.85;;
21501;SDS011;27639;48.674;9.242;2023-03-31T06:06:37;8.73;;;4.65;;
21501;SDS011;27639;48.674;9.242;2023-03-31T06:09:04;8.18;;;4.65;;
21501;SDS011;27639;48.674;9.242;2023-03-31T06:11:30;9.15;;;5.10;;
21501;SDS011;27639;48.674;9.242;2023-03-31T06:13:56;9.50;;;4.60;;
21501;SDS011;27639;48.674;9.242;2023-03-31T06:16:21;10.52;;;4.80;;
21501;SDS011;27639;48.674;9.242;2023-03-31T06:18:47;10.23;;;5.13;;
21501;SDS011;27639;48.674;9.242;2023-03-31T06:21:15;8.40;;;4.63;;
21501;SDS011;27639;48.674;9.242;2023-03-31T06:23:42;9.50;;;5.30;;
21501;SDS011;27639;48.674;9.242;2023-03-31T06:26:11;8.30;;;4.82;;
21501;SDS011;27639;48.674;9.242;2023-03-31T06:28:38;10.02;;;5.15;;
21501;SDS011;27639;48.674;9.242;2023-03-31T06:31:08;10.60;;;5.72;;
21501;SDS011;27639;48.674;9.242;2023-03-31T06:33:36;8.63;;;5.00;;
21501;SDS011;27639;48.674;9.242;2023-03-31T06:36:02;8.80;;;4.93;;
21501;SDS011;27639;48.674;9.242;2023-03-31T06:38:29;8.35;;;5.20;;
21501;SDS011;27639;48.674;9.242;2023-03-31T06:40:55;9.60;;;5.82;;
21501;SDS011;27639;48.674;9.242;2023-03-31T06:43:21;9.40;;;5.25;;
21501;SDS011;27639;48.674;9.242;2023-03-31T06:45:47;9.95;;;5.25;;
21501;SDS011;27639;48.674;9.242;2023-03-31T06:48:12;10.05;;;6.15;;
21501;SDS011;27639;48.674;9.242;2023-03-31T06:50:38;12.52;;;5.57;;
21501;SDS011;27639;48.674;9.242;2023-03-31T06:53:05;11.43;;;5.13;;
21501;SDS011;27639;48.674;9.242;2023-03-31T06:55:34;10.63;;;6.15;;
21501;SDS011;27639;48.674;9.242;2023-03-31T06:58:01;11.20;;;5.95;;
21501;SDS011;27639;48.674;9.242;2023-03-31T07:00:27;9.65;;;5.35;;
21501;SDS011;27639;48.674;9.242;2023-03-31T07:02:53;10.80;;;5.90;;
21501;SDS011;27639;48.674;9.242;2023-03-31T07:05:18;11.55;;;5.63;;
21501;SDS011;27639;48.674;9.242;2023-03-31T07:07:51;7.47;;;4.53;;
21501;SDS011;27639;48.674;9.242;2023-03-31T07:10:20;7.50;;;4.50;;
21501;SDS011;27639;48.674;9.242;2023-03-31T07:12:47;9.23;;;4.13;;
21501;SDS011;27639;48.674;9.242;2023-03-31T07:15:13;10.40;;;3.90;;
21501;SDS011;27639;48.674;9.242;2023-03-31T07:17:38;7.65;;;3.25;;
21501;SDS011;27639;48.674;9.242;2023-03-31T07:20:08;6.78;;;3.00;;
21501;SDS011;27639;48.674;9.242;2023-03-31T07:22:39;7.25;;;3.33;;
21501;SDS011;27639;48.674;9.242;2023-03-31T07:25:05;5.65;;;2.80;;
21501;SDS011;27639;48.674;9.242;2023-03-31T07:27:32;6.35;;;2.50;;
21501;SDS011;27639;48.674;9.242;2023-03-31T07:29:57;5.00;;;2.63;;
21501;SDS011;27639;48.674;9.242;2023-03-31T07:32:23;5.97;;;2.25;;
21501;SDS011;27639;48.674;9.242;2023-03-31T07:34:48;5.07;;;2.10;;
21501;SDS011;27639;48.674;9.242;2023-03-31T07:37:14;4.90;;;1.73;;
21501;SDS011;27639;48.674;9.242;2023-03-31T07:39:40;3.65;;;1.73;;
21501;SDS011;27639;48.674;9.242;2023-03-31T07:42:05;3.65;;;1.42;;
21501;SDS011;27639;48.674;9.242;2023-03-31T07:44:32;4.55;;;1.38;;
21501;SDS011;27639;48.674;9.242;2023-03-31T07:46:58;3.03;;;1.33;;
21501;SDS011;27639;48.674;9.242;2023-03-31T07:49:28;3.88;;;1.80;;
21501;SDS011;27639;48.674;9.242;2023-03-31T07:51:54;4.43;;;1.25;;
21501;SDS011;27639;48.674;9.242;2023-03-31T07:54:20;2.90;;;1.10;;
21501;SDS011;27639;48.674;9.242;2023-03-31T07:56:45;3.17;;;1.20;;
21501;SDS011;27639;48.674;9.242;2023-03-31T07:59:11;2.75;;;1.20;;
21501;SDS011;27639;48.674;9.242;2023-03-31T08:01:37;4.10;;;1.30;;
21501;SDS011;27639;48.674;9.242;2023-03-31T08:04:02;4.15;;;1.50;;
21501;SDS011;27639;48.674;9.242;2023-03-31T08:06:28;3.97;;;1.52;;
21501;SDS011;27639;48.674;9.242;2023-03-31T08:08:54;3.30;;;1.40;;
21501;SDS011;27639;48.674;9.242;2023-03-31T08:11:20;3.08;;;1.52;;
21501;SDS011;27639;48.674;9.242;2023-03-31T08:13:46;3.28;;;1.50;;
21501;SDS011;27639;48.674;9.242;2023-03-31T08:16:12;3.60;;;1.48;;
21501;SDS011;27639;48.674;9.242;2023-03-31T08:18:37;3.08;;;1.52;;
21501;SDS011;27639;48.674;9.242;2023-03-31T08:21:03;3.47;;;1.63;;
21501;SDS011;27639;48.674;9.242;2023-03-31T08:23:28;4.07;;;1.88;;
21501;SDS011;27639;48.674;9.242;2023-03-31T08:25:54;3.72;;;1.50;;
21501;SDS011;27639;48.674;9.242;2023-03-31T08:28:30;4.28;;;1.58;;
21501;SDS011;27639;48.674;9.242;2023-03-31T08:31:00;2.65;;;1.20;;
21501;SDS011;27639;48.674;9.242;2023-03-31T08:33:28;3.90;;;1.33;;
21501;SDS011;27639;48.674;9.242;2023-03-31T08:35:53;2.83;;;1.38;;
21501;SDS011;27639;48.674;9.242;2023-03-31T08:38:19;3.67;;;1.63;;
21501;SDS011;27639;48.674;9.242;2023-03-31T08:40:45;3.83;;;1.42;;
21501;SDS011;27639;48.674;9.242;2023-03-31T08:43:12;3.13;;;1.10;;
21501;SDS011;27639;48.674;9.242;2023-03-31T08:45:52;2.72;;;1.00;;
21501;SDS011;27639;48.674;9.242;2023-03-31T08:48:23;3.08;;;1.00;;
21501;SDS011;27639;48.674;9.242;2023-03-31T08:51:02;2.50;;;1.00;;
21501;SDS011;27639;48.674;9.242;2023-03-31T08:53:32;2.75;;;1.02;;
21501;SDS011;27639;48.674;9.242;2023-03-31T08:56:03;2.95;;;1.27;;
21501;SDS011;27639;48.674;9.242;2023-03-31T08:58:43;2.72;;;0.90;;
21501;SDS011;27639;48.674;9.242;2023-03-31T09:15:25;4.22;;;1.10;;
21501;SDS011;27639;48.674;9.242;2023-03-31T09:17:58;3.58;;;1.00;;
21501;SDS011;27639;48.674;9.242;2023-03-31T09:20:33;3.15;;;0.80;;
21501;SDS011;27639;48.674;9.242;2023-03-31T09:23:10;3.58;;;0.90;;
21501;SDS011;27639;48.674;9.242;2023-03-31T09:25:51;3.45;;;0.77;;
21501;SDS011;27639;48.674;9.242;2023-03-31T09:28:25;2.47;;;0.80;;
21501;SDS011;27639;48.674;9.242;2023-03-31T09:31:02;2.50;;;0.80;;
21501;SDS011;27639;48.674;9.242;2023-03-31T09:33:32;2.28;;;0.82;;
21501;SDS011;27639;48.674;9.242;2023-03-31T09:36:00;2.65;;;0.80;;
21501;SDS011;27639;48.674;9.242;2023-03-31T09:38:32;4.28;;;1.25;;
21501;SDS011;27639;48.674;9.242;2023-03-31T09:40:58;3.60;;;1.23;;
21501;SDS011;27639;48.674;9.242;2023-03-31T09:43:29;3.83;;;1.20;;
21501;SDS011;27639;48.674;9.242;2023-03-31T09:45:59;3.30;;;0.70;;
21501;SDS011;27639;48.674;9.242;2023-03-31T09:48:26;3.85;;;1.00;;
21501;SDS011;27639;48.674;9.242;2023-03-31T09:50:56;3.85;;;1.15;;
21501;SDS011;27639;48.674;9.242;2023-03-31T09:53:33;3.85;;;0.80;;
21501;SDS011;27639;48.674;9.242;2023-03-31T09:56:30;3.15;;;0.80;;
21501;SDS011;27639;48.674;9.242;2023-03-31T09:59:14;2.13;;;0.73;;
21501;SDS011;27639;48.674;9.242;2023-03-31T10:01:42;4.28;;;0.90;;
21501;SDS011;27639;48.674;9.242;2023-03-31T10:04:10;6.57;;;1.23;;
21501;SDS011;27639;48.674;9.242;2023-03-31T10:06:52;5.55;;;1.10;;
21501;SDS011;27639;48.674;9.242;2023-03-31T10:09:19;4.45;;;1.05;;
21501;SDS011;27639;48.674;9.242;2023-03-31T10:11:58;5.95;;;1.00;;
21501;SDS011;27639;48.674;9.242;2023-03-31T10:14:37;2.88;;;0.90;;
21501;SDS011;27639;48.674;9.242;2023-03-31T10:17:15;5.90;;;1.40;;
21501;SDS011;27639;48.674;9.242;2023-03-31T10:24:45;5.13;;;1.20;;
21501;SDS011;27639;48.674;9.242;2023-03-31T10:27:22;5.35;;;1.30;;
21501;SDS011;27639;48.674;9.242;2023-03-31T10:30:07;3.53;;;0.93;;
21501;SDS011;27639;48.674;9.242;2023-03-31T10:32:42;4.50;;;1.25;;
21501;SDS011;27639;48.674;9.242;2023-03-31T10:35:14;6.03;;;1.25;;
21501;SDS011;27639;48.674;9.242;2023-03-31T10:37:48;4.13;;;1.52;;
21501;SDS011;27639;48.674;9.242;2023-03-31T10:40:20;4.55;;;1.30;;
21501;SDS011;27639;48.674;9.242;2023-03-31T10:42:49;5.10;;;1.42;;
21501;SDS011;27639;48.674;9.242;2023-03-31T10:45:26;4.85;;;1.30;;
21501;SDS011;27639;48.674;9.242;2023-03-31T10:48:00;5.05;;;1.30;;
21501;SDS011;27639;48.674;9.242;2023-03-31T10:50:27;5.32;;;1.50;;
21501;SDS011;27639;48.674;9.242;2023-03-31T10:53:06;5.25;;;1.33;;
21501;SDS011;27639;48.674;9.242;2023-03-31T11:09:48;3.97;;;1.15;;
21501;SDS011;27639;48.674;9.242;2023-03-31T11:12:30;6.03;;;1.58;;
21501;SDS011;27639;48.674;9.242;2023-03-31T11:23:42;5.93;;;1.88;;
21501;SDS011;27639;48.674;9.242;2023-03-31T11:40:46;2.55;;;0.77;;
21501;SDS011;27639;48.674;9.242;2023-03-31T11:46:27;1.42;;;0.40;;
21501;SDS011;27639;48.674;9.242;2023-03-31T11:49:23;1.77;;;0.30;;
21501;SDS011;27639;48.674;9.242;2023-03-31T11:52:02;1.48;;;0.50;;
21501;SDS011;27639;48.674;9.242;2023-03-31T11:57:24;2.20;;;0.55;;
21501;SDS011;27639;48.674;9.242;2023-03-31T12:00:20;2.10;;;0.60;;
21501;SDS011;27639;48.674;9.242;2023-03-31T12:03:00;4.20;;;1.23;;
21501;SDS011;27639;48.674;9.242;2023-03-31T12:06:11;2.83;;;0.50;;
21501;SDS011;27639;48.674;9.242;2023-03-31T12:09:11;1.10;;;0.40;;
21501;SDS011;27639;48.674;9.242;2023-03-31T12:11:45;2.55;;;0.50;;
21501;SDS011;27639;48.674;9.242;2023-03-31T12:14:28;1.63;;;0.40;;
21501;SDS011;27639;48.674;9.242;2023-03-31T12:17:16;1.65;;;0.30;;
21501;SDS011;27639;48.674;9.242;2023-03-31T12:19:47;1.52;;;0.35;;
21501;SDS011;27639;48.674;9.242;2023-03-31T12:22:52;2.13;;;0.43;;
21501;SDS011;27639;48.674;9.242;2023-03-31T12:25:20;1.77;;;0.50;;
21501;SDS011;27639;48.674;9.242;2023-03-31T12:27:47;0.93;;;0.35;;
21501;SDS011;27639;48.674;9.242;2023-03-31T12:32:57;1.85;;;0.57;;
21501;SDS011;27639;48.674;9.242;2023-03-31T12:35:28;1.98;;;0.60;;
21501;SDS011;27639;48.674;9.242;2023-03-31T12:40:55;1.58;;;0.60;;
21501;SDS011;27639;48.674;9.242;2023-03-31T12:59:41;3.78;;;0.50;;
21501;SDS011;27639;48.674;9.242;2023-03-31T13:04:35;2.78;;;0.50;;
21501;SDS011;27639;48.674;9.242;2023-03-31T13:07:02;3.30;;;0.52;;
21501;SDS011;27639;48.674;9.242;2023-03-31T13:12:18;4.07;;;0.73;;
21501;SDS011;27639;48.674;9.242;2023-03-31T13:14:47;3.17;;;0.60;;
21501;SDS011;27639;48.674;9.242;2023-03-31T13:17:31;3.10;;;0.80;;
21501;SDS011;27639;48.674;9.242;2023-03-31T13:23:00;3.70;;;0.90;;
21501;SDS011;27639;48.674;9.242;2023-03-31T13:25:39;3.38;;;0.77;;
21501;SDS011;27639;48.674;9.242;2023-03-31T13:52:12;1.65;;;0.25;;
21501;SDS011;27639;48.674;9.242;2023-03-31T14:00:09;1.08;;;0.60;;
21501;SDS011;27639;48.674;9.242;2023-03-31T14:03:04;2.75;;;0.40;;
21501;SDS011;27639;48.674;9.242;2023-03-31T14:05:44;1.52;;;0.55;;
21501;SDS011;27639;48.674;9.242;2023-03-31T14:10:47;2.92;;;0.70;;
21501;SDS011;27639;48.674;9.242;2023-03-31T14:13:17;2.47;;;0.50;;
21501;SDS011;27639;48.674;9.242;2023-03-31T14:18:23;2.33;;;0.60;;
21501;SDS011;27639;48.674;9.242;2023-03-31T14:21:07;3.03;;;0.50;;
21501;SDS011;27639;48.674;9.242;2023-03-31T14:23:48;1.15;;;0.50;;
21501;SDS011;27639;48.674;9.242;2023-03-31T14:37:43;1.98;;;0.80;;
21501;SDS011;27639;48.674;9.242;2023-03-31T14:40:12;3.03;;;0.77;;
21501;SDS011;27639;48.674;9.242;2023-03-31T14:42:40;1.88;;;0.50;;
21501;SDS011;27639;48.674;9.242;2023-03-31T14:45:17;1.30;;;0.40;;
21501;SDS011;27639;48.674;9.242;2023-03-31T14:47:56;2.13;;;0.70;;
21501;SDS011;27639;48.674;9.242;2023-03-31T14:50:27;8.93;;;4.70;;
21501;SDS011;27639;48.674;9.242;2023-03-31T14:52:59;3.58;;;1.00;;
21501;SDS011;27639;48.674;9.242;2023-03-31T14:55:27;2.20;;;0.70;;
21501;SDS011;27639;48.674;9.242;2023-03-31T14:57:55;2.40;;;0.82;;
21501;SDS011;27639;48.674;9.242;2023-03-31T15:00:25;3.03;;;0.80;;
21501;SDS011;27639;48.674;9.242;2023-03-31T15:02:54;3.42;;;0.80;;
21501;SDS011;27639;48.674;9.242;2023-03-31T15:05:24;2.15;;;0.73;;
21501;SDS011;27639;48.674;9.242;2023-03-31T15:07:57;2.50;;;0.80;;
21501;SDS011;27639;48.674;9.242;2023-03-31T15:10:23;2.83;;;0.60;;
21501;SDS011;27639;48.674;9.242;2023-03-31T15:12:53;2.63;;;0.50;;
21501;SDS011;27639;48.674;9.242;2023-03-31T15:15:18;2.28;;;0.50;;
21501;SDS011;27639;48.674;9.242;2023-03-31T15:17:46;3.45;;;0.70;;
21501;SDS011;27639;48.674;9.242;2023-03-31T15:22:49;2.05;;;0.70;;
21501;SDS011;27639;48.674;9.242;2023-03-31T15:25:15;1.55;;;0.40;;
21501;SDS011;27639;48.674;9.242;2023-03-31T15:27:44;3.28;;;0.60;;
21501;SDS011;27639;48.674;9.242;2023-03-31T15:30:13;2.45;;;0.60;;
21501;SDS011;27639;48.674;9.242;2023-03-31T15:32:42;2.20;;;0.60;;
21501;SDS011;27639;48.674;9.242;2023-03-31T15:38:04;2.67;;;0.60;;
21501;SDS011;27639;48.674;9.242;2023-03-31T15:40:34;2.45;;;0.60;;
21501;SDS011;27639;48.674;9.242;2023-03-31T15:45:47;2.30;;;0.70;;
21501;SDS011;27639;48.674;9.242;2023-03-31T15:48:22;2.20;;;0.60;;
21501;SDS011;27639;48.674;9.242;2023-03-31T15:50:55;2.05;;;0.63;;
21501;SDS011;27639;48.674;9.242;2023-03-31T15:53:28;2.22;;;0.55;;
21501;SDS011;27639;48.674;9.242;2023-03-31T15:56:01;2.22;;;0.70;;
21501;SDS011;27639;48.674;9.242;2023-03-31T15:59:12;4.32;;;0.70;;
21501;SDS011;27639;48.674;9.242;2023-03-31T16:01:26;3.22;;;0.70;;
21501;SDS011;27639;48.674;9.242;2023-03-31T16:03:54;2.67;;;0.70;;
21501;SDS011;27639;48.674;9.242;2023-03-31T16:11:54;3.33;;;1.00;;
21501;SDS011;27639;48.674;9.242;2023-03-31T16:14:24;2.10;;;0.60;;
21501;SDS011;27639;48.674;9.242;2023-03-31T16:17:06;4.63;;;0.77;;
21501;SDS011;27639;48.674;9.242;2023-03-31T16:19:47;2.88;;;0.68;;
21501;SDS011;27639;48.674;9.242;2023-03-31T16:22:17;4.15;;;1.30;;
21501;SDS011;27639;48.674;9.242;2023-03-31T16:24:47;3.60;;;0.90;;
21501;SDS011;27639;48.674;9.242;2023-03-31T16:27:13;4.78;;;1.00;;
21501;SDS011;27639;48.674;9.242;2023-03-31T16:29:38;5.20;;;1.60;;
21501;SDS011;27639;48.674;9.242;2023-03-31T16:32:06;4.70;;;1.30;;
21501;SDS011;27639;48.674;9.242;2023-03-31T16:34:52;3.03;;;0.82;;
21501;SDS011;27639;48.674;9.242;2023-03-31T16:37:21;4.18;;;1.13;;
21501;SDS011;27639;48.674;9.242;2023-03-31T16:39:47;5.68;;;1.35;;
21501;SDS011;27639;48.674;9.242;2023-03-31T16:42:13;2.30;;;0.80;;
21501;SDS011;27639;48.674;9.242;2023-03-31T16:44:38;4.68;;;1.55;;
21501;SDS011;27639;48.674;9.242;2023-03-31T16:47:04;4.72;;;0.88;;
21501;SDS011;27639;48.674;9.242;2023-03-31T16:49:30;5.80;;;0.90;;
21501;SDS011;27639;48.674;9.242;2023-03-31T16:51:55;5.40;;;1.55;;
21501;SDS011;27639;48.674;9.242;2023-03-31T16:54:21;5.30;;;1.30;;
21501;SDS011;27639;48.674;9.242;2023-03-31T16:56:46;3.67;;;1.10;;
21501;SDS011;27639;48.674;9.242;2023-03-31T16:59:12;3.30;;;1.10;;
21501;SDS011;27639;48.674;9.242;2023-03-31T17:01:38;3.47;;;1.40;;
21501;SDS011;27639;48.674;9.242;2023-03-31T17:04:04;2.65;;;0.90;;
21501;SDS011;27639;48.674;9.242;2023-03-31T17:06:29;3.63;;;0.93;;
21501;SDS011;27639;48.674;9.242;2023-03-31T17:08:55;4.05;;;0.98;;
21501;SDS011;27639;48.674;9.242;2023-03-31T17:11:20;3.65;;;0.90;;
21501;SDS011;27639;48.674;9.242;2023-03-31T17:13:46;3.28;;;0.90;;
21501;SDS011;27639;48.674;9.242;2023-03-31T17:16:13;3.28;;;0.90;;
21501;SDS011;27639;48.674;9.242;2023-03-31T17:18:39;2.47;;;0.80;;
21501;SDS011;27639;48.674;9.242;2023-03-31T17:23:32;3.72;;;0.82;;
21501;SDS011;27639;48.674;9.242;2023-03-31T17:25:58;3.17;;;0.70;;
21501;SDS011;27639;48.674;9.242;2023-03-31T17:28:23;2.40;;;0.70;;
21501;SDS011;27639;48.674;9.242;2023-03-31T17:30:49;3.53;;;0.90;;
21501;SDS011;27639;48.674;9.242;2023-03-31T17:33:14;2.67;;;0.70;;
21501;SDS011;27639;48.674;9.242;2023-03-31T17:35:41;3.97;;;1.27;;
21501;SDS011;27639;48.674;9.242;2023-03-31T17:38:07;4.20;;;1.38;;
21501;SDS011;27639;48.674;9.242;2023-03-31T17:40:36;4.35;;;1.40;;
21501;SDS011;27639;48.674;9.242;2023-03-31T17:43:02;2.60;;;1.08;;
21501;SDS011;27639;48.674;9.242;2023-03-31T17:45:28;3.75;;;1.10;;
21501;SDS011;27639;48.674;9.242;2023-03-31T17:47:54;5.00;;;1.10;;
21501;SDS011;27639;48.674;9.242;2023-03-31T17:50:20;3.90;;;0.90;;
21501;SDS011;27639;48.674;9.242;2023-03-31T17:52:46;2.53;;;0.70;;
21501;SDS011;27639;48.674;9.242;2023-03-31T17:55:11;3.53;;;0.90;;
21501;SDS011;27639;48.674;9.242;2023-03-31T17:57:38;3.70;;;1.27;;
21501;SDS011;27639;48.674;9.242;2023-03-31T18:00:06;5.03;;;1.23;;
21501;SDS011;27639;48.674;9.242;2023-03-31T18:02:37;4.32;;;1.63;;
21501;SDS011;27639;48.674;9.242;2023-03-31T18:05:03;3.50;;;1.05;;
21501;SDS011;27639;48.674;9.242;2023-03-31T18:07:30;3.45;;;1.15;;
21501;SDS011;27639;48.674;9.242;2023-03-31T18:09:56;4.10;;;1.92;;
21501;SDS011;27639;48.674;9.242;2023-03-31T18:12:22;3.85;;;1.60;;
21501;SDS011;27639;48.674;9.242;2023-03-31T18:14:48;4.22;;;1.88;;
21501;SDS011;27639;48.674;9.242;2023-03-31T18:17:14;3.22;;;1.20;;
21501;SDS011;27639;48.674;9.242;2023-03-31T18:19:41;4.32;;;1.63;;
21501;SDS011;27639;48.674;9.242;2023-03-31T18:22:07;4.20;;;1.60;;
21501;SDS011;27639;48.674;9.242;2023-03-31T18:24:33;6.25;;;1.80;;
21501;SDS011;27639;48.674;9.242;2023-03-31T18:27:00;3.90;;;1.15;;
21501;SDS011;27639;48.674;9.242;2023-03-31T18:29:26;4.07;;;1.40;;